createdAt,value
2022-11-28T00:16:21.435Z,4.10
2022-11-28T00:24:40.913Z,6.80
2022-11-28T00:41:19.885Z,6.90
2022-11-28T01:06:24.622Z,6.70
2022-11-28T01:09:16.525Z,6.70
2022-11-28T01:31:25.781Z,6.60
2022-11-28T01:45:17.276Z,6.60
2022-11-28T01:48:03.828Z,6.60
2022-11-28T01:50:53.171Z,8.50
2022-11-28T01:53:42.747Z,6.70
2022-11-28T01:56:38.210Z,6.70
2022-11-28T01:59:27.424Z,6.70
2022-11-28T02:02:24.775Z,6.70
2022-11-28T02:13:51.221Z,6.70
2022-11-28T02:17:04.674Z,6.70
2022-11-28T02:20:11.717Z,6.60
2022-11-28T02:23:20.646Z,6.70
2022-11-28T02:26:30.239Z,6.60
2022-11-28T02:29:43.417Z,6.60
2022-11-28T02:32:57.122Z,6.70
2022-11-28T02:36:12.258Z,6.70
2022-11-28T02:39:24.803Z,6.70
2022-11-28T02:42:34.312Z,6.70
2022-11-28T02:45:40.012Z,6.70
2022-11-28T02:48:51.791Z,6.80
2022-11-28T02:51:53.025Z,6.80
2022-11-28T02:54:39.844Z,6.90
2022-11-28T02:57:42.516Z,6.80
2022-11-28T03:03:52.095Z,6.70
2022-11-28T03:06:58.466Z,6.70
2022-11-28T03:10:00.885Z,6.70
2022-11-28T03:13:11.089Z,6.60
2022-11-28T03:16:12.257Z,6.60
2022-11-28T03:19:11.637Z,6.60
2022-11-28T03:22:10.641Z,6.50
2022-11-28T03:25:06.021Z,6.60
2022-11-28T03:28:14.640Z,6.60
2022-11-28T03:31:09.697Z,6.60
2022-11-28T03:33:58.733Z,6.50
2022-11-28T03:36:49.991Z,6.50
2022-11-28T03:39:40.254Z,6.50
2022-11-28T03:42:29.508Z,6.50
2022-11-28T03:45:23.646Z,6.50
2022-11-28T03:48:17.500Z,6.40
2022-11-28T03:51:08.740Z,6.40
2022-11-28T03:54:00.992Z,6.50
2022-11-28T03:59:36.558Z,6.40
2022-11-28T04:03:08.716Z,6.50
2022-11-28T04:06:08.208Z,6.50
2022-11-28T04:09:03.462Z,6.50
2022-11-28T04:11:56.441Z,6.40
2022-11-28T04:15:00.065Z,6.50
2022-11-28T04:17:59.554Z,6.50
2022-11-28T04:21:00.002Z,6.50
2022-11-28T04:23:48.014Z,6.60
2022-11-28T04:26:43.050Z,6.50
2022-11-28T04:29:35.852Z,6.60
2022-11-28T04:32:23.817Z,6.60
2022-11-28T04:35:19.302Z,6.60
2022-11-28T04:38:07.138Z,6.60
2022-11-28T04:41:12.500Z,6.60
2022-11-28T04:44:42.716Z,6.60
2022-11-28T04:53:03.649Z,6.60
2022-11-28T04:55:57.861Z,6.60
2022-11-28T04:58:46.729Z,6.60
2022-11-28T05:01:33.775Z,6.70
2022-11-28T05:07:07.425Z,6.60
2022-11-28T05:20:59.043Z,6.40
2022-11-28T05:23:45.358Z,6.50
2022-11-28T06:16:41.590Z,6.40
2022-11-28T06:36:04.234Z,6.50
2022-11-28T07:17:34.941Z,6.60
2022-11-28T07:20:21.090Z,6.60
2022-11-28T07:26:02.280Z,6.70
2022-11-28T07:51:24.209Z,6.80
2022-11-28T08:11:05.877Z,6.90
2022-11-28T08:36:13.456Z,6.90
2022-11-28T08:39:34.031Z,6.90
2022-11-28T09:18:14.649Z,7.00
2022-11-28T09:21:01.825Z,7.00
2022-11-28T09:40:33.894Z,7.20
2022-11-28T09:43:31.551Z,7.20
2022-11-28T09:46:29.229Z,7.20
2022-11-28T09:49:19.773Z,7.20
2022-11-28T09:52:28.205Z,7.30
2022-11-28T09:55:47.327Z,7.40
2022-11-28T09:58:41.847Z,7.40
2022-11-28T10:01:58.963Z,7.40
2022-11-28T10:05:02.317Z,7.40
2022-11-28T10:10:55.353Z,7.50
2022-11-28T10:14:18.978Z,8.00
2022-11-28T10:17:30.294Z,7.70
2022-11-28T10:20:23.536Z,7.70
2022-11-28T10:23:22.058Z,7.80
2022-11-28T10:26:33.406Z,7.70
2022-11-28T10:29:39.131Z,7.90
2022-11-28T10:32:35.442Z,7.90
2022-11-28T10:35:42.485Z,8.00
2022-11-28T10:38:31.314Z,8.00
2022-11-28T10:41:33.251Z,7.90
2022-11-28T10:44:26.802Z,8.00
2022-11-28T10:47:39.675Z,8.00
2022-11-28T10:50:33.900Z,8.00
2022-11-28T10:53:25.265Z,8.10
2022-11-28T10:56:47.264Z,8.10
2022-11-28T10:59:57.490Z,8.10
2022-11-28T11:02:51.249Z,8.00
2022-11-28T11:05:37.516Z,8.00
2022-11-28T11:11:28.666Z,8.10
2022-11-28T11:31:02.439Z,8.30
2022-11-28T11:33:51.586Z,8.30
2022-11-28T11:36:37.581Z,8.30
2022-11-28T11:39:25.394Z,8.20
2022-11-28T11:42:19.000Z,8.20
2022-11-28T11:45:25.176Z,8.20
2022-11-28T11:48:12.397Z,8.20
2022-11-28T11:53:45.117Z,8.20
2022-11-28T11:56:36.540Z,8.20
2022-11-28T11:59:33.355Z,8.20
2022-11-28T12:02:31.136Z,8.20
2022-11-28T12:05:20.549Z,8.20
2022-11-28T12:08:14.880Z,8.10
2022-11-28T12:11:28.838Z,8.20
2022-11-28T12:14:35.133Z,8.30
2022-11-28T12:17:48.918Z,8.30
2022-11-28T12:20:44.071Z,8.20
2022-11-28T12:23:54.418Z,8.30
2022-11-28T12:26:47.811Z,8.20
2022-11-28T12:30:12.218Z,8.10
2022-11-28T12:33:18.846Z,8.20
2022-11-28T12:36:36.517Z,8.40
2022-11-28T12:39:43.893Z,8.40
2022-11-28T12:43:13.598Z,8.40
2022-11-28T12:46:20.688Z,8.40
2022-11-28T12:49:48.494Z,8.40
2022-11-28T12:53:07.653Z,8.40
2022-11-28T12:56:25.076Z,8.30
2022-11-28T12:59:56.503Z,8.40
2022-11-28T13:02:58.304Z,8.30
2022-11-28T13:05:57.693Z,8.30
2022-11-28T13:11:58.891Z,8.30
2022-11-28T13:17:52.395Z,8.30
2022-11-28T13:20:58.703Z,8.40
2022-11-28T13:23:56.367Z,8.40
2022-11-28T13:26:58.847Z,8.30
2022-11-28T13:29:52.058Z,8.30
2022-11-28T13:32:50.743Z,8.30
2022-11-28T13:35:37.430Z,8.30
2022-11-28T13:38:45.161Z,8.20
2022-11-28T13:42:36.576Z,7.20
2022-11-28T13:45:07.247Z,8.10
2022-11-28T13:50:40.318Z,8.10
2022-11-28T13:56:26.425Z,7.30
2022-11-28T13:59:22.177Z,8.10
2022-11-28T14:02:33.354Z,8.20
2022-11-28T14:05:41.595Z,8.20
2022-11-28T14:08:40.727Z,8.20
2022-11-28T14:11:47.362Z,8.20
2022-11-28T14:14:57.051Z,8.20
2022-11-28T14:20:46.309Z,8.20
2022-11-28T14:24:08.876Z,8.20
2022-11-28T14:27:04.105Z,8.20
2022-11-28T14:29:54.512Z,7.20
2022-11-28T14:32:43.409Z,8.10
2022-11-28T14:35:50.898Z,8.10
2022-11-28T14:44:47.255Z,7.80
2022-11-28T14:47:34.417Z,8.10
2022-11-28T14:53:36.304Z,8.10
2022-11-28T14:56:27.838Z,8.10
2022-11-28T15:02:06.079Z,8.10
2022-11-28T15:08:00.216Z,8.00
2022-11-28T15:11:07.569Z,7.90
2022-11-28T15:14:14.141Z,7.90
2022-11-28T15:17:10.969Z,7.90
2022-11-28T15:19:58.935Z,7.90
2022-11-28T15:31:22.756Z,7.80
2022-11-28T15:34:10.073Z,7.80
2022-11-28T15:36:58.749Z,7.80
2022-11-28T15:39:47.813Z,9.90
2022-11-28T15:42:35.447Z,7.70
2022-11-28T15:45:30.174Z,7.70
2022-11-28T15:48:37.569Z,7.70
2022-11-28T15:51:35.609Z,7.70
2022-11-28T15:54:41.291Z,7.80
2022-11-28T15:57:28.641Z,7.70
2022-11-28T16:00:16.151Z,7.70
2022-11-28T16:05:50.233Z,7.70
2022-11-28T16:08:57.310Z,7.60
2022-11-28T16:11:47.582Z,5.00
2022-11-28T16:14:42.963Z,7.70
2022-11-28T16:17:33.935Z,7.70
2022-11-28T16:20:29.673Z,8.80
2022-11-28T16:23:21.576Z,7.60
2022-11-28T16:26:26.567Z,7.60
2022-11-28T16:29:14.614Z,7.60
2022-11-28T16:32:21.880Z,7.60
2022-11-28T16:35:12.259Z,7.60
2022-11-28T16:38:19.023Z,7.70
2022-11-28T16:43:56.487Z,7.70
2022-11-28T16:47:02.175Z,7.70
2022-11-28T16:50:24.587Z,7.60
2022-11-28T16:53:42.289Z,7.60
2022-11-28T16:59:16.498Z,9.70
2022-11-28T17:04:50.649Z,7.60
2022-11-28T17:13:09.545Z,7.60
2022-11-28T17:21:34.252Z,7.60
2022-11-28T17:24:35.790Z,7.60
2022-11-28T17:35:42.653Z,7.50
2022-11-28T17:46:51.359Z,7.60
2022-11-28T18:06:32.162Z,7.70
2022-11-28T18:14:49.705Z,7.60
2022-11-28T18:23:10.948Z,7.60
2022-11-28T18:28:42.682Z,7.60
2022-11-28T18:31:30.175Z,7.70
2022-11-28T19:13:04.887Z,7.70
2022-11-28T19:21:27.115Z,7.70
2022-11-28T19:29:47.102Z,7.60
2022-11-28T19:32:33.027Z,7.60
2022-11-28T19:43:37.092Z,7.60
2022-11-28T19:49:20.062Z,7.60
2022-11-28T20:08:44.113Z,7.60
2022-11-28T20:11:34.553Z,7.50
2022-11-28T20:19:52.778Z,7.60
2022-11-28T20:36:30.941Z,7.60
2022-11-28T20:47:35.067Z,7.60
2022-11-28T20:56:00.414Z,7.60
2022-11-28T21:01:34.892Z,7.60
2022-11-28T21:12:50.596Z,7.60
2022-11-28T21:15:48.079Z,7.60
2022-11-28T21:18:38.230Z,7.70
2022-11-28T21:21:35.255Z,7.90
2022-11-28T21:30:03.998Z,7.80
2022-11-28T21:46:58.210Z,7.70
2022-11-28T21:49:50.457Z,7.70
2022-11-28T21:55:34.884Z,8.10
2022-11-28T21:58:30.160Z,7.60
2022-11-28T22:04:34.991Z,7.60
2022-11-28T22:07:38.022Z,7.50
2022-11-28T22:13:45.470Z,7.60
2022-11-28T22:16:56.168Z,7.60
2022-11-28T22:26:34.107Z,7.60
2022-11-28T22:29:26.024Z,7.50
2022-11-28T22:37:49.643Z,7.60
2022-11-28T22:46:25.727Z,7.50
2022-11-28T23:06:05.112Z,7.40
2022-11-28T23:08:52.192Z,7.40
2022-11-28T23:11:40.251Z,7.40
2022-11-28T23:14:35.558Z,7.40
2022-11-28T23:20:10.972Z,7.40
2022-11-28T23:23:01.344Z,7.40
2022-11-28T23:29:33.002Z,7.50
2022-11-28T23:38:53.020Z,7.40
2022-11-28T23:53:44.371Z,7.40
2022-11-28T23:56:45.390Z,7.50
